Roslyn, South Dakota
Current Conditions -  °F | °C
As of 4:53 PM on Wednesday 26 Nov 2014 (Local Time) from KATY Reporting Station
Overcast Overcast  
Wind Chill: -8°   Ceiling: 8500
Heat Index:   Visibility: 10mi
Dew Point: -1°   Wind: 12mph
Humidity: 70%   Direction: 360°N
Pressure: 30.36"   Gusts: NA
Location:  45.5°N, 97.49°W
Report Text: KATY 262253Z AUTO 36010KT 10SM FEW070 OVC085 M14/M18 A3036 RMK AO2 SLP316 T11391183
Loading
Personal Weather Stations






























Interactive Weather Map New forecast layout! Learn more

10-Day Weather Forecast

Advertisements
Track Severe Weather on mobile